createdAt,value
2018-10-16T00:01:03.308Z,99404.00
2018-10-16T00:03:38.858Z,99404.00
2018-10-16T00:06:14.563Z,99407.00
2018-10-16T00:08:50.260Z,99409.00
2018-10-16T00:11:25.805Z,99410.00
2018-10-16T00:14:01.415Z,99408.00
2018-10-16T00:16:36.990Z,99407.00
2018-10-16T00:19:12.670Z,99410.00
2018-10-16T00:21:48.263Z,99408.00
2018-10-16T00:24:23.782Z,99411.00
2018-10-16T00:26:59.273Z,99413.00
2018-10-16T00:29:34.839Z,99416.00
2018-10-16T00:32:10.455Z,99417.00
2018-10-16T00:34:46.042Z,99415.00
2018-10-16T00:37:21.639Z,99422.00
2018-10-16T00:39:57.235Z,99423.00
2018-10-16T00:42:32.858Z,99424.00
2018-10-16T00:45:10.360Z,99433.00
2018-10-16T00:47:45.898Z,99435.00
2018-10-16T00:50:21.562Z,99431.00
2018-10-16T00:52:57.191Z,99430.00
2018-10-16T00:55:32.759Z,99427.00
2018-10-16T00:58:08.339Z,99430.00
2018-10-16T01:00:43.981Z,99429.00
2018-10-16T01:03:19.596Z,99432.00
2018-10-16T01:05:55.155Z,99438.00
2018-10-16T01:08:30.675Z,99437.00
2018-10-16T01:11:10.848Z,99436.00
2018-10-16T01:13:46.535Z,99441.00
2018-10-16T01:16:22.173Z,99441.00
2018-10-16T01:18:57.795Z,99444.00
2018-10-16T01:21:33.513Z,99444.00
2018-10-16T01:24:09.148Z,99443.00
2018-10-16T01:26:44.563Z,99442.00
2018-10-16T01:29:20.098Z,99444.00
2018-10-16T01:31:55.588Z,99442.00
2018-10-16T01:34:31.190Z,99447.00
2018-10-16T01:37:06.677Z,99445.00
2018-10-16T01:39:42.165Z,99447.00
2018-10-16T01:42:17.742Z,99451.00
2018-10-16T01:44:53.573Z,99450.00
2018-10-16T01:47:29.194Z,99449.00
2018-10-16T01:50:05.202Z,99447.00
2018-10-16T01:52:40.770Z,99445.00
2018-10-16T01:55:16.270Z,99448.00
2018-10-16T01:57:51.830Z,99442.00
2018-10-16T02:00:27.287Z,99446.00
2018-10-16T02:03:02.786Z,99450.00
2018-10-16T02:05:38.504Z,99454.00
2018-10-16T02:08:13.970Z,99458.00
2018-10-16T02:10:49.507Z,99457.00
2018-10-16T02:13:25.055Z,99467.00
2018-10-16T02:16:00.609Z,99466.00
2018-10-16T02:18:36.254Z,99473.00
2018-10-16T02:21:11.908Z,99476.00
2018-10-16T02:23:47.438Z,99479.00
2018-10-16T02:26:23.047Z,99472.00
2018-10-16T02:28:58.598Z,99476.00
2018-10-16T02:31:34.327Z,99473.00
2018-10-16T02:34:09.910Z,99476.00
2018-10-16T02:36:45.484Z,99475.00
2018-10-16T02:39:21.090Z,99478.00
2018-10-16T02:41:56.639Z,99482.00
2018-10-16T02:44:32.107Z,99481.00
2018-10-16T02:47:07.706Z,99477.00
2018-10-16T02:49:43.072Z,99476.00
2018-10-16T02:52:18.611Z,99478.00
2018-10-16T02:54:54.111Z,99483.00
2018-10-16T02:57:29.667Z,99485.00
2018-10-16T03:00:05.396Z,99491.00
2018-10-16T03:02:41.094Z,99491.00
2018-10-16T03:05:16.575Z,99489.00
2018-10-16T03:07:52.155Z,99491.00
2018-10-16T03:10:27.709Z,99487.00
2018-10-16T03:13:03.475Z,99489.00
2018-10-16T03:15:38.894Z,99486.00
2018-10-16T03:18:14.495Z,99486.00
2018-10-16T03:20:50.055Z,99487.00
2018-10-16T03:23:25.549Z,99493.00
2018-10-16T03:26:01.050Z,99490.00
2018-10-16T03:28:36.633Z,99492.00
2018-10-16T03:31:18.982Z,99489.00
2018-10-16T03:33:55.031Z,99489.00
2018-10-16T03:36:30.634Z,99490.00
2018-10-16T03:39:09.334Z,99494.00
2018-10-16T03:41:44.815Z,99498.00
2018-10-16T03:44:20.210Z,99497.00
2018-10-16T03:46:55.813Z,99502.00
2018-10-16T03:49:31.349Z,99503.00
2018-10-16T03:52:06.878Z,99506.00
2018-10-16T03:54:42.446Z,99509.00
2018-10-16T03:57:18.100Z,99509.00
2018-10-16T03:59:53.533Z,99504.00
2018-10-16T04:02:29.044Z,99507.00
2018-10-16T04:05:04.602Z,99503.00
2018-10-16T04:07:40.528Z,99509.00
2018-10-16T04:10:16.105Z,99505.00
2018-10-16T04:12:51.599Z,99509.00
2018-10-16T04:15:27.181Z,99512.00
2018-10-16T04:18:02.770Z,99516.00
2018-10-16T04:20:38.197Z,99518.00
2018-10-16T04:23:13.686Z,99522.00
2018-10-16T04:25:49.307Z,99527.00
2018-10-16T04:28:24.874Z,99526.00
2018-10-16T04:31:00.438Z,99528.00
2018-10-16T04:33:35.997Z,99528.00
2018-10-16T04:36:11.521Z,99526.00
2018-10-16T04:38:47.055Z,99530.00
2018-10-16T04:41:22.689Z,99534.00
2018-10-16T04:43:58.335Z,99532.00
2018-10-16T04:46:33.892Z,99538.00
2018-10-16T04:49:09.454Z,99540.00
2018-10-16T04:51:45.008Z,99546.00
2018-10-16T04:54:20.586Z,99549.00
2018-10-16T04:56:56.113Z,99544.00
2018-10-16T04:59:31.667Z,99542.00
2018-10-16T05:02:07.393Z,99543.00
2018-10-16T05:04:42.981Z,99543.00
2018-10-16T05:07:18.517Z,99544.00
2018-10-16T05:09:54.081Z,99550.00
2018-10-16T05:12:29.657Z,99549.00
2018-10-16T05:15:05.530Z,99553.00
2018-10-16T05:17:40.979Z,99556.00
2018-10-16T05:20:16.526Z,99552.00
2018-10-16T05:22:52.149Z,99550.00
2018-10-16T05:25:28.902Z,99556.00
2018-10-16T05:28:05.240Z,99556.00
2018-10-16T05:30:40.830Z,99561.00
2018-10-16T05:33:16.463Z,99568.00
2018-10-16T05:35:52.035Z,99564.00
2018-10-16T05:38:27.603Z,99574.00
2018-10-16T05:41:03.170Z,99578.00
2018-10-16T05:43:38.725Z,99586.00
2018-10-16T05:46:14.412Z,99579.00
2018-10-16T05:48:49.995Z,99582.00
2018-10-16T05:51:25.609Z,99588.00
2018-10-16T05:54:01.175Z,99593.00
2018-10-16T05:56:36.706Z,99594.00
2018-10-16T05:59:12.278Z,99605.00
2018-10-16T06:01:47.846Z,99601.00
2018-10-16T06:04:23.380Z,99608.00
2018-10-16T06:06:59.068Z,99612.00
2018-10-16T06:09:34.870Z,99618.00
2018-10-16T06:12:10.485Z,99619.00
2018-10-16T06:14:46.043Z,99616.00
2018-10-16T06:17:21.610Z,99622.00
2018-10-16T06:19:57.194Z,99623.00
2018-10-16T06:22:32.745Z,99627.00
2018-10-16T06:25:09.078Z,99629.00
2018-10-16T06:27:44.729Z,99627.00
2018-10-16T06:30:20.388Z,99628.00
2018-10-16T06:32:55.966Z,99630.00
2018-10-16T06:35:31.534Z,99629.00
2018-10-16T06:38:07.062Z,99634.00
2018-10-16T06:40:42.701Z,99634.00
2018-10-16T06:43:18.186Z,99639.00
2018-10-16T06:45:53.800Z,99644.00
2018-10-16T06:48:29.564Z,99642.00
2018-10-16T06:51:05.298Z,99649.00
2018-10-16T06:53:40.855Z,99648.00
2018-10-16T06:56:16.467Z,99645.00
2018-10-16T06:58:52.082Z,99645.00
2018-10-16T07:01:27.660Z,99644.00
2018-10-16T07:04:03.322Z,99648.00
2018-10-16T07:06:38.915Z,99645.00
2018-10-16T07:09:14.510Z,99647.00
2018-10-16T07:11:50.086Z,99650.00
2018-10-16T07:14:25.687Z,99649.00
2018-10-16T07:17:01.291Z,99655.00
2018-10-16T07:19:36.909Z,99659.00
2018-10-16T07:22:12.886Z,99658.00
2018-10-16T07:24:48.409Z,99656.00
2018-10-16T07:27:24.006Z,99660.00
2018-10-16T07:29:59.618Z,99660.00
2018-10-16T07:32:35.197Z,99665.00
2018-10-16T07:35:11.210Z,99666.00
2018-10-16T07:37:46.714Z,99665.00
2018-10-16T07:40:22.208Z,99664.00
2018-10-16T07:42:57.738Z,99666.00
2018-10-16T07:45:33.330Z,99669.00
2018-10-16T07:48:08.897Z,99668.00
2018-10-16T07:50:44.496Z,99676.00
2018-10-16T07:53:20.036Z,99671.00
2018-10-16T07:55:55.797Z,99672.00
2018-10-16T07:58:31.498Z,99672.00
2018-10-16T08:01:07.154Z,99667.00
2018-10-16T08:03:42.707Z,99667.00
2018-10-16T08:06:18.298Z,99670.00
2018-10-16T08:08:53.927Z,99667.00
2018-10-16T08:11:29.533Z,99670.00
2018-10-16T08:14:05.362Z,99666.00
2018-10-16T08:16:41.006Z,99661.00
2018-10-16T08:19:16.534Z,99657.00
2018-10-16T08:21:52.110Z,99655.00
2018-10-16T08:24:27.745Z,99651.00
2018-10-16T08:27:03.266Z,99657.00
2018-10-16T08:29:38.794Z,99654.00
2018-10-16T08:32:14.454Z,99649.00
2018-10-16T08:34:49.979Z,99653.00
2018-10-16T08:39:49.966Z,99657.00
2018-10-16T08:43:43.057Z,99660.00
2018-10-16T08:46:35.646Z,99655.00
2018-10-16T08:49:28.133Z,99662.00
2018-10-16T08:52:03.881Z,99665.00
2018-10-16T08:54:39.446Z,99659.00
2018-10-16T08:57:15.047Z,99654.00
2018-10-16T08:59:50.618Z,99656.00
2018-10-16T09:02:26.182Z,99657.00
2018-10-16T09:05:01.719Z,99657.00
2018-10-16T09:07:37.361Z,99654.00
2018-10-16T09:10:12.931Z,99655.00
2018-10-16T09:12:48.563Z,99650.00
2018-10-16T09:15:24.690Z,99655.00
2018-10-16T09:18:00.205Z,99647.00
2018-10-16T09:20:35.798Z,99644.00
2018-10-16T09:23:11.362Z,99643.00
2018-10-16T09:25:46.901Z,99646.00
2018-10-16T09:28:22.449Z,99642.00
2018-10-16T09:30:58.067Z,99644.00
2018-10-16T09:33:33.565Z,99643.00
2018-10-16T09:36:09.194Z,99641.00
2018-10-16T09:38:44.771Z,99640.00
2018-10-16T09:41:20.350Z,99641.00
2018-10-16T09:43:55.953Z,99644.00
2018-10-16T09:46:31.539Z,99644.00
2018-10-16T09:49:07.134Z,99641.00
2018-10-16T09:51:42.679Z,99640.00
2018-10-16T09:54:18.261Z,99642.00
2018-10-16T09:56:53.865Z,99642.00
2018-10-16T09:59:29.401Z,99641.00
2018-10-16T10:02:05.492Z,99635.00
2018-10-16T10:04:41.118Z,99635.00
2018-10-16T10:07:16.672Z,99634.00
2018-10-16T10:09:52.253Z,99631.00
2018-10-16T10:12:27.886Z,99630.00
2018-10-16T10:15:03.515Z,99633.00
2018-10-16T10:17:39.110Z,99632.00
2018-10-16T10:20:14.673Z,99630.00
2018-10-16T10:22:50.186Z,99630.00
2018-10-16T10:25:25.738Z,99631.00
2018-10-16T10:28:01.329Z,99629.00
2018-10-16T10:30:36.854Z,99629.00
2018-10-16T10:33:12.523Z,99626.00
2018-10-16T10:35:48.115Z,99627.00
2018-10-16T10:38:23.749Z,99622.00
2018-10-16T10:40:59.313Z,99616.00
2018-10-16T10:43:34.903Z,99615.00
2018-10-16T10:46:10.473Z,99610.00
2018-10-16T10:48:46.038Z,99609.00
2018-10-16T10:51:21.844Z,99612.00
2018-10-16T10:53:57.285Z,99614.00
2018-10-16T10:56:32.868Z,99613.00
2018-10-16T10:59:08.435Z,99612.00
2018-10-16T11:01:43.938Z,99611.00
2018-10-16T11:04:19.603Z,99611.00
2018-10-16T11:06:55.201Z,99607.00
2018-10-16T11:09:30.789Z,99608.00
2018-10-16T11:12:06.582Z,99605.00
2018-10-16T11:14:42.205Z,99600.00
2018-10-16T11:17:17.767Z,99597.00
2018-10-16T11:19:53.342Z,99592.00
2018-10-16T11:22:28.888Z,99592.00
2018-10-16T11:25:05.082Z,99594.00
2018-10-16T11:27:40.652Z,99588.00
2018-10-16T11:30:16.522Z,99593.00
2018-10-16T11:32:52.028Z,99591.00
2018-10-16T11:35:27.583Z,99587.00
2018-10-16T11:38:03.231Z,99590.00
2018-10-16T11:40:38.881Z,99592.00
2018-10-16T11:43:14.503Z,99589.00
2018-10-16T11:45:50.266Z,99593.00
2018-10-16T11:48:25.839Z,99596.00
2018-10-16T11:51:01.611Z,99592.00
2018-10-16T11:53:37.228Z,99591.00
2018-10-16T11:56:12.926Z,99596.00
2018-10-16T11:58:48.502Z,99590.00
2018-10-16T12:01:24.098Z,99591.00
2018-10-16T12:03:59.714Z,99590.00
2018-10-16T12:06:35.270Z,99587.00
2018-10-16T12:09:11.103Z,99585.00
2018-10-16T12:11:53.326Z,99584.00
2018-10-16T12:14:29.090Z,99583.00
2018-10-16T12:17:10.965Z,99586.00
2018-10-16T12:19:49.991Z,99582.00
2018-10-16T12:22:25.513Z,99580.00
2018-10-16T12:25:01.144Z,99581.00
2018-10-16T12:27:36.933Z,99569.00
2018-10-16T12:30:12.520Z,99575.00
2018-10-16T12:32:48.077Z,99576.00
2018-10-16T12:35:23.669Z,99575.00
2018-10-16T12:37:59.294Z,99576.00
2018-10-16T12:40:34.843Z,99570.00
2018-10-16T12:43:10.439Z,99574.00
2018-10-16T12:45:45.978Z,99569.00
2018-10-16T12:48:21.571Z,99573.00
2018-10-16T12:50:57.181Z,99571.00
2018-10-16T12:53:32.706Z,99577.00
2018-10-16T12:56:08.373Z,99574.00
2018-10-16T12:58:43.857Z,99577.00
2018-10-16T13:01:19.430Z,99578.00
2018-10-16T13:03:54.999Z,99576.00
2018-10-16T13:06:30.562Z,99576.00
2018-10-16T13:09:09.591Z,99572.00
2018-10-16T13:11:44.982Z,99573.00
2018-10-16T13:14:20.525Z,99567.00
2018-10-16T13:16:56.285Z,99570.00
2018-10-16T13:19:32.366Z,99570.00
2018-10-16T13:22:07.902Z,99573.00
2018-10-16T13:24:43.471Z,99572.00
2018-10-16T13:27:19.001Z,99572.00
2018-10-16T13:29:54.691Z,99572.00
2018-10-16T13:32:30.260Z,99575.00
2018-10-16T13:35:07.961Z,99575.00
2018-10-16T13:37:44.289Z,99579.00
2018-10-16T13:40:19.905Z,99578.00
2018-10-16T13:42:55.493Z,99576.00
2018-10-16T13:45:30.997Z,99581.00
2018-10-16T13:48:07.260Z,99580.00
2018-10-16T13:50:43.010Z,99582.00
2018-10-16T13:53:18.583Z,99576.00
2018-10-16T13:55:56.136Z,99575.00
2018-10-16T13:58:31.813Z,99579.00
2018-10-16T14:01:07.567Z,99576.00
2018-10-16T14:03:43.463Z,99571.00
2018-10-16T14:06:19.146Z,99576.00
2018-10-16T14:08:54.695Z,99577.00
2018-10-16T14:11:30.243Z,99577.00
2018-10-16T14:14:06.069Z,99580.00
2018-10-16T14:16:41.715Z,99580.00
2018-10-16T14:19:17.306Z,99576.00
2018-10-16T14:21:52.902Z,99575.00
2018-10-16T14:24:28.371Z,99574.00
2018-10-16T14:27:03.913Z,99577.00
2018-10-16T14:29:39.414Z,99578.00
2018-10-16T14:32:15.045Z,99574.00
2018-10-16T14:34:50.881Z,99577.00
2018-10-16T14:37:26.441Z,99573.00
2018-10-16T14:40:02.864Z,99570.00
2018-10-16T14:42:38.751Z,99572.00
2018-10-16T14:45:14.660Z,99571.00
2018-10-16T14:47:50.413Z,99570.00
2018-10-16T14:50:25.826Z,99571.00
2018-10-16T14:53:01.485Z,99570.00
2018-10-16T14:55:36.972Z,99571.00
2018-10-16T14:58:14.082Z,99570.00
2018-10-16T15:00:49.591Z,99571.00
2018-10-16T15:03:25.228Z,99570.00
2018-10-16T15:06:00.823Z,99568.00
2018-10-16T15:08:36.495Z,99566.00
2018-10-16T15:11:12.107Z,99562.00
2018-10-16T15:13:47.602Z,99561.00
2018-10-16T15:16:23.123Z,99567.00
2018-10-16T15:18:58.738Z,99564.00
2018-10-16T15:21:34.275Z,99568.00
2018-10-16T15:24:09.901Z,99571.00
2018-10-16T15:26:45.329Z,99573.00
2018-10-16T15:29:20.873Z,99575.00
2018-10-16T15:31:56.406Z,99571.00
2018-10-16T15:34:31.904Z,99574.00
2018-10-16T15:37:07.896Z,99573.00
2018-10-16T15:39:43.474Z,99575.00
2018-10-16T15:42:18.961Z,99574.00
2018-10-16T15:44:54.630Z,99571.00
2018-10-16T15:47:30.243Z,99577.00
2018-10-16T15:50:06.755Z,99581.00
2018-10-16T15:52:42.177Z,99585.00
2018-10-16T15:55:17.659Z,99584.00
2018-10-16T15:57:53.151Z,99583.00
2018-10-16T16:00:28.653Z,99581.00
2018-10-16T16:03:04.269Z,99579.00
2018-10-16T16:05:39.697Z,99583.00
2018-10-16T16:08:16.067Z,99590.00
2018-10-16T16:10:51.558Z,99593.00
2018-10-16T16:13:27.068Z,99591.00
2018-10-16T16:16:02.621Z,99591.00
2018-10-16T16:18:38.187Z,99591.00
2018-10-16T16:21:13.703Z,99598.00
2018-10-16T16:23:49.313Z,99598.00
2018-10-16T16:26:24.839Z,99600.00
2018-10-16T16:29:00.404Z,99603.00
2018-10-16T16:31:35.923Z,99600.00
2018-10-16T16:34:11.636Z,99607.00
2018-10-16T16:36:47.044Z,99610.00
2018-10-16T16:39:22.713Z,99616.00
2018-10-16T16:41:58.199Z,99616.00
2018-10-16T16:44:33.919Z,99618.00
2018-10-16T16:47:09.322Z,99622.00
2018-10-16T16:49:44.822Z,99621.00
2018-10-16T16:52:20.317Z,99624.00
2018-10-16T16:54:55.919Z,99625.00
2018-10-16T16:57:31.394Z,99627.00
2018-10-16T17:00:10.925Z,99630.00
2018-10-16T17:02:46.862Z,99635.00
2018-10-16T17:05:22.302Z,99632.00
2018-10-16T17:07:57.752Z,99633.00
2018-10-16T17:10:33.336Z,99639.00
2018-10-16T17:13:08.828Z,99643.00
2018-10-16T17:15:44.366Z,99644.00
2018-10-16T17:18:19.905Z,99642.00
2018-10-16T17:20:55.453Z,99648.00
2018-10-16T17:23:30.998Z,99653.00
2018-10-16T17:26:07.062Z,99656.00
2018-10-16T17:28:42.527Z,99656.00
2018-10-16T17:31:18.201Z,99658.00
2018-10-16T17:33:54.303Z,99657.00
2018-10-16T17:36:30.182Z,99660.00
2018-10-16T17:39:08.726Z,99655.00
2018-10-16T17:41:44.198Z,99658.00
2018-10-16T17:44:19.826Z,99659.00
2018-10-16T17:46:55.455Z,99656.00
2018-10-16T17:49:31.011Z,99661.00
2018-10-16T17:52:07.450Z,99665.00
2018-10-16T17:54:43.576Z,99659.00
2018-10-16T17:57:19.215Z,99659.00
2018-10-16T17:59:56.423Z,99658.00
2018-10-16T18:02:32.290Z,99658.00
2018-10-16T18:05:07.959Z,99658.00
2018-10-16T18:07:44.232Z,99660.00
2018-10-16T18:10:19.918Z,99665.00
2018-10-16T18:12:55.542Z,99670.00
2018-10-16T18:15:31.102Z,99664.00
2018-10-16T18:18:07.075Z,99672.00
2018-10-16T18:20:42.741Z,99672.00
2018-10-16T18:23:18.254Z,99678.00
2018-10-16T18:25:53.782Z,99674.00
2018-10-16T18:28:29.303Z,99682.00
2018-10-16T18:31:05.342Z,99679.00
2018-10-16T18:33:40.882Z,99680.00
2018-10-16T18:36:16.471Z,99676.00
2018-10-16T18:38:46.696Z,99685.00
2018-10-16T18:41:16.971Z,99675.00
2018-10-16T18:43:47.205Z,99683.00
2018-10-16T18:46:17.999Z,99681.00
2018-10-16T18:48:48.488Z,99682.00
2018-10-16T18:51:18.743Z,99674.00
2018-10-16T18:53:49.676Z,99674.00
2018-10-16T18:56:20.181Z,99671.00
2018-10-16T18:58:50.435Z,99672.00
2018-10-16T19:01:20.837Z,99673.00
2018-10-16T19:03:51.150Z,99674.00
2018-10-16T19:06:21.495Z,99674.00
2018-10-16T19:08:51.752Z,99676.00
2018-10-16T19:11:22.027Z,99676.00
2018-10-16T19:13:52.267Z,99677.00
2018-10-16T19:16:22.525Z,99678.00
2018-10-16T19:18:52.799Z,99683.00
2018-10-16T19:21:23.063Z,99680.00
2018-10-16T19:23:53.302Z,99683.00
2018-10-16T19:26:23.606Z,99687.00
2018-10-16T19:28:53.934Z,99694.00
2018-10-16T19:31:24.196Z,99691.00
2018-10-16T19:33:54.465Z,99693.00
2018-10-16T19:36:24.713Z,99696.00
2018-10-16T19:38:54.957Z,99693.00
2018-10-16T19:41:25.187Z,99699.00
2018-10-16T19:43:55.436Z,99696.00
2018-10-16T19:46:25.673Z,99696.00
2018-10-16T19:48:55.937Z,99698.00
2018-10-16T19:51:26.175Z,99703.00
2018-10-16T19:53:56.427Z,99702.00
2018-10-16T19:56:26.620Z,99701.00
2018-10-16T19:58:57.110Z,99706.00
2018-10-16T20:01:27.340Z,99707.00
2018-10-16T20:03:57.589Z,99707.00
2018-10-16T20:06:27.824Z,99708.00
2018-10-16T20:08:58.180Z,99712.00
2018-10-16T20:11:28.347Z,99713.00
2018-10-16T20:13:58.644Z,99712.00
2018-10-16T20:16:28.851Z,99711.00
2018-10-16T20:18:59.101Z,99715.00
2018-10-16T20:21:29.369Z,99720.00
2018-10-16T20:23:59.713Z,99721.00
2018-10-16T20:26:30.014Z,99721.00
2018-10-16T20:29:00.351Z,99721.00
2018-10-16T20:31:30.652Z,99725.00
2018-10-16T20:34:00.922Z,99726.00
2018-10-16T20:36:31.201Z,99725.00
2018-10-16T20:39:01.443Z,99724.00
2018-10-16T20:41:31.681Z,99724.00
2018-10-16T20:44:01.962Z,99719.00
2018-10-16T20:46:32.183Z,99720.00
2018-10-16T20:49:02.848Z,99719.00
2018-10-16T20:51:33.075Z,99715.00
2018-10-16T20:54:03.565Z,99718.00
2018-10-16T20:56:33.854Z,99719.00
2018-10-16T20:59:04.113Z,99714.00
2018-10-16T21:01:34.338Z,99719.00
2018-10-16T21:04:04.890Z,99717.00
2018-10-16T21:06:35.293Z,99717.00
2018-10-16T21:09:06.662Z,99711.00
2018-10-16T21:11:36.903Z,99710.00
2018-10-16T21:14:07.170Z,99712.00
2018-10-16T21:16:37.451Z,99703.00
2018-10-16T21:19:07.805Z,99706.00
2018-10-16T21:21:37.987Z,99709.00
2018-10-16T21:24:08.247Z,99709.00
2018-10-16T21:26:38.538Z,99705.00
2018-10-16T21:29:08.853Z,99710.00
2018-10-16T21:31:39.050Z,99710.00
2018-10-16T21:34:09.298Z,99707.00
2018-10-16T21:36:39.555Z,99709.00
2018-10-16T21:39:09.853Z,99711.00
2018-10-16T21:41:40.062Z,99707.00
2018-10-16T21:44:10.296Z,99708.00
2018-10-16T21:46:40.539Z,99708.00
2018-10-16T21:49:10.894Z,99709.00
2018-10-16T21:51:41.071Z,99711.00
2018-10-16T21:54:11.353Z,99707.00
2018-10-16T21:56:41.599Z,99715.00
2018-10-16T21:59:12.051Z,99713.00
2018-10-16T22:01:47.501Z,99715.00
2018-10-16T22:04:17.953Z,99716.00
2018-10-16T22:06:48.499Z,99712.00
2018-10-16T22:09:19.221Z,99713.00
2018-10-16T22:11:49.670Z,99712.00
2018-10-16T22:14:20.082Z,99708.00
2018-10-16T22:16:50.473Z,99705.00
2018-10-16T22:19:20.914Z,99705.00
2018-10-16T22:21:51.203Z,99705.00
2018-10-16T22:24:21.762Z,99700.00
2018-10-16T22:26:52.155Z,99697.00
2018-10-16T22:29:22.743Z,99697.00
2018-10-16T22:31:53.299Z,99695.00
2018-10-16T22:34:24.141Z,99694.00
2018-10-16T22:36:54.559Z,99695.00
2018-10-16T22:39:24.986Z,99697.00
2018-10-16T22:41:55.306Z,99694.00
2018-10-16T22:44:25.924Z,99695.00
2018-10-16T22:46:56.365Z,99700.00
2018-10-16T22:49:26.758Z,99700.00
2018-10-16T22:51:57.130Z,99701.00
2018-10-16T22:54:27.559Z,99701.00
2018-10-16T22:56:57.899Z,99702.00
2018-10-16T22:59:28.657Z,99701.00
2018-10-16T23:01:59.074Z,99700.00
2018-10-16T23:04:29.490Z,99703.00
2018-10-16T23:06:59.910Z,99702.00
2018-10-16T23:09:30.307Z,99704.00
2018-10-16T23:12:00.638Z,99697.00
2018-10-16T23:14:31.082Z,99702.00
2018-10-16T23:17:01.928Z,99697.00
2018-10-16T23:19:32.363Z,99695.00
2018-10-16T23:22:02.773Z,99689.00
2018-10-16T23:24:33.226Z,99692.00
2018-10-16T23:27:03.544Z,99690.00
2018-10-16T23:29:33.867Z,99682.00
2018-10-16T23:32:04.270Z,99681.00
2018-10-16T23:34:34.572Z,99683.00
2018-10-16T23:37:05.201Z,99680.00
2018-10-16T23:39:35.406Z,99678.00
2018-10-16T23:42:05.691Z,99678.00
2018-10-16T23:44:36.039Z,99678.00
2018-10-16T23:47:06.327Z,99683.00
2018-10-16T23:49:36.558Z,99683.00
2018-10-16T23:52:06.840Z,99681.00
2018-10-16T23:54:37.094Z,99684.00
2018-10-16T23:57:07.340Z,99682.00
2018-10-16T23:59:37.590Z,99686.00
